Time;durP1;ratioP1;P1;durP2;ratioP2;P2;SDS_P1;SDS_P2;PMS_P1;PMS_P2;Temp;Humidity;BMP_temperature;BMP_pressure;BME280_temperature;BME280_humidity;BME280_pressure;Samples;Min_cycle;Max_cycle;Signal;HPM_P1;HPM_P2
2021/01/03 00:00:24;;;;;;;84.17;58.90;;;5.00;34.70;;;;;;5003808;28;20195;-69
2021/01/03 00:02:51;;;;;;;82.68;54.28;;;5.00;34.40;;;;;;5004310;28;20172;-69
2021/01/03 00:05:21;;;;;;;89.82;55.42;;;5.00;34.60;;;;;;5002848;28;20234;-70
2021/01/03 00:07:48;;;;;;;85.68;54.55;;;4.90;39.50;;;;;;5003680;28;20657;-70
2021/01/03 00:10:15;;;;;;;91.18;55.47;;;5.00;34.30;;;;;;5004549;28;20341;-70
2021/01/03 00:12:40;;;;;;;81.68;55.15;;;5.00;33.70;;;;;;5002788;28;20180;-69
2021/01/03 00:15:10;;;;;;;81.77;56.60;;;5.00;33.30;;;;;;5003983;28;20310;-69
2021/01/03 00:17:35;;;;;;;92.18;60.25;;;5.00;32.90;;;;;;5004425;28;20192;-70
2021/01/03 00:20:01;;;;;;;83.47;56.60;;;5.00;32.80;;;;;;5004514;28;20203;-70
2021/01/03 00:22:26;;;;;;;75.10;51.57;;;4.90;32.80;;;;;;5003362;28;20163;-70
2021/01/03 00:24:52;;;;;;;83.63;59.60;;;4.90;33.00;;;;;;5003100;28;20168;-70
2021/01/03 00:27:18;;;;;;;69.73;50.83;;;4.80;34.30;;;;;;5004567;28;20199;-70
2021/01/03 00:29:43;;;;;;;87.20;60.53;;;4.80;34.70;;;;;;5002541;28;20724;-69
2021/01/03 00:32:09;;;;;;;76.83;52.50;;;4.80;34.30;;;;;;5003357;28;20661;-69
2021/01/03 00:34:34;;;;;;;92.57;60.00;;;4.80;34.50;;;;;;5004212;28;20176;-70
2021/01/03 00:37:00;;;;;;;85.77;56.40;;;4.80;34.50;;;;;;5004315;28;20199;-70
2021/01/03 00:39:26;;;;;;;85.43;58.90;;;4.80;39.30;;;;;;4996959;28;20250;-70
2021/01/03 00:41:52;;;;;;;78.40;51.53;;;4.90;35.00;;;;;;4994810;28;20575;-70
2021/01/03 00:44:18;;;;;;;92.63;57.45;;;4.80;35.20;;;;;;4993790;28;20175;-70
2021/01/03 00:46:44;;;;;;;86.03;60.05;;;4.90;35.60;;;;;;4994542;28;20178;-69
2021/01/03 00:49:10;;;;;;;92.67;57.13;;;4.90;35.20;;;;;;4994664;28;20550;-70
2021/01/03 00:51:35;;;;;;;87.40;57.60;;;4.90;34.10;;;;;;4994813;28;20183;-70
2021/01/03 00:54:02;;;;;;;84.27;53.77;;;4.90;32.50;;;;;;4994738;28;20175;-69
2021/01/03 00:56:28;;;;;;;76.70;51.78;;;4.90;31.90;;;;;;4994392;28;20642;-69
2021/01/03 00:58:54;;;;;;;80.80;51.93;;;5.00;31.50;;;;;;4993179;28;20199;-70
2021/01/03 01:01:21;;;;;;;86.95;58.95;;;5.00;31.40;;;;;;4994207;28;20254;-70
2021/01/03 01:03:47;;;;;;;92.13;57.58;;;4.90;30.70;;;;;;4994547;28;20272;-70
2021/01/03 01:06:12;;;;;;;78.18;56.20;;;5.00;30.30;;;;;;4994187;28;20692;-70
2021/01/03 01:08:38;;;;;;;78.47;53.10;;;5.00;29.60;;;;;;4994193;28;20203;-69
2021/01/03 01:11:05;;;;;;;86.17;53.90;;;5.00;28.80;;;;;;4994316;28;20190;-69
2021/01/03 01:13:31;;;;;;;81.43;58.67;;;4.90;28.70;;;;;;4994372;28;20254;-70
2021/01/03 01:15:56;;;;;;;80.78;59.70;;;4.90;28.80;;;;;;4994114;28;20187;-69
2021/01/03 01:18:22;;;;;;;80.13;57.00;;;4.90;29.00;;;;;;4994192;28;20199;-70
2021/01/03 01:20:48;;;;;;;82.00;55.10;;;4.90;28.90;;;;;;4994303;28;20200;-70
2021/01/03 01:23:13;;;;;;;84.23;56.50;;;5.00;28.80;;;;;;4994299;28;20168;-70
2021/01/03 01:25:39;;;;;;;73.67;48.27;;;5.00;28.70;;;;;;4994247;28;20168;-70
2021/01/03 01:28:05;;;;;;;82.97;54.20;;;5.00;28.70;;;;;;4994131;28;20211;-70
2021/01/03 01:30:32;;;;;;;78.80;47.67;;;5.00;27.90;;;;;;4994170;28;20603;-70
2021/01/03 01:32:59;;;;;;;80.82;51.42;;;5.00;27.90;;;;;;4994262;28;20195;-70
2021/01/03 01:35:28;;;;;;;80.35;52.60;;;5.00;27.80;;;;;;4994234;28;20183;-70
2021/01/03 01:37:54;;;;;;;82.80;54.13;;;4.90;27.30;;;;;;4994359;28;20246;-69
2021/01/03 01:40:24;;;;;;;87.53;51.67;;;4.90;28.00;;;;;;4993994;28;20215;-70
2021/01/03 01:42:50;;;;;;;89.03;52.85;;;4.90;27.70;;;;;;4994134;28;20218;-70
2021/01/03 01:45:19;;;;;;;77.32;50.03;;;4.90;27.50;;;;;;4994196;28;20199;-70
2021/01/03 01:47:48;;;;;;;85.65;51.53;;;5.00;27.30;;;;;;4993840;28;20237;-70
2021/01/03 01:50:25;;;;;;;82.40;58.95;;;5.00;27.20;;;;;;4993918;28;20184;-70
2021/01/03 01:52:56;;;;;;;77.05;57.95;;;5.00;26.80;;;;;;4993951;28;20286;-70
2021/01/03 01:55:26;;;;;;;79.18;53.42;;;5.00;26.90;;;;;;4992701;28;20184;-70
2021/01/03 01:58:08;;;;;;;74.45;50.55;;;5.00;26.00;;;;;;4993736;28;20188;-69
2021/01/03 02:00:37;;;;;;;91.25;67.13;;;5.00;25.80;;;;;;4993772;28;20642;-70
2021/01/03 02:03:12;;;;;;;74.65;55.00;;;5.00;25.60;;;;;;4993833;28;20219;-70
2021/01/03 02:05:59;;;;;;;75.95;58.97;;;5.00;25.20;;;;;;4994016;28;20168;-69
2021/01/03 02:08:46;;;;;;;76.68;68.40;;;5.00;25.10;;;;;;4993772;28;20199;-70
2021/01/03 02:11:18;;;;;;;77.32;53.10;;;5.00;24.90;;;;;;4993901;28;20180;-70
2021/01/03 02:13:50;;;;;;;66.68;57.72;;;5.00;24.90;;;;;;4997169;28;20187;-70
2021/01/03 02:16:21;;;;;;;78.55;57.88;;;5.00;24.80;;;;;;4996143;28;20279;-70
2021/01/03 02:18:48;;;;;;;75.18;51.15;;;5.00;24.80;;;;;;4997989;28;20589;-70
2021/01/03 02:21:20;;;;;;;74.57;54.20;;;5.00;25.40;;;;;;4997498;28;20200;-70
2021/01/03 02:24:08;;;;;;;68.72;48.67;;;5.00;25.40;;;;;;4997568;28;20176;-70
2021/01/03 02:26:41;;;;;;;72.63;51.40;;;5.00;25.80;;;;;;4997386;28;20531;-69
2021/01/03 02:29:09;;;;;;;56.85;48.63;;;4.90;25.50;;;;;;4997416;28;20159;-70
2021/01/03 02:31:42;;;;;;;61.13;42.10;;;4.90;25.80;;;;;;4997438;28;20266;-70
2021/01/03 02:34:11;;;;;;;68.18;45.92;;;4.90;25.90;;;;;;4997384;28;20217;-70
2021/01/03 02:36:36;;;;;;;74.43;43.63;;;4.90;25.90;;;;;;4997030;28;20187;-70
2021/01/03 02:39:32;;;;;;;71.10;56.80;;;4.90;26.20;;;;;;4995870;28;20172;-70
2021/01/03 02:42:01;;;;;;;69.75;48.42;;;4.90;25.90;;;;;;4997317;28;20267;-70
2021/01/03 02:44:27;;;;;;;68.13;50.75;;;4.90;25.60;;;;;;4997137;28;20195;-70
2021/01/03 02:46:55;;;;;;;59.37;48.83;;;4.90;25.30;;;;;;4996717;28;20180;-70
2021/01/03 02:49:22;;;;;;;66.45;50.55;;;4.90;25.10;;;;;;4996883;28;20528;-70
2021/01/03 02:51:47;;;;;;;71.97;57.25;;;4.90;25.20;;;;;;4996954;28;20171;-69
2021/01/03 02:54:13;;;;;;;60.47;54.33;;;4.90;25.60;;;;;;4997003;28;20179;-70
2021/01/03 02:56:39;;;;;;;63.10;47.10;;;4.90;25.90;;;;;;4996694;28;20172;-70
2021/01/03 02:59:04;;;;;;;58.47;49.43;;;4.90;25.90;;;;;;4996745;28;20672;-70
2021/01/03 03:01:30;;;;;;;64.47;48.77;;;4.90;25.80;;;;;;4996581;28;20330;-70
2021/01/03 03:03:56;;;;;;;64.70;50.40;;;4.90;25.80;;;;;;4996724;28;20410;-70
2021/01/03 03:06:21;;;;;;;65.83;48.97;;;4.80;26.40;;;;;;4996434;28;20176;-70
2021/01/03 03:08:47;;;;;;;59.03;47.87;;;4.90;26.20;;;;;;4995144;28;20199;-70
2021/01/03 03:11:13;;;;;;;58.10;50.47;;;4.80;26.20;;;;;;4996449;28;20180;-70
2021/01/03 03:13:38;;;;;;;65.10;47.60;;;4.80;26.50;;;;;;4996624;28;20758;-70
2021/01/03 03:16:04;;;;;;;62.00;47.87;;;4.80;26.60;;;;;;4995030;28;20179;-70
2021/01/03 03:18:29;;;;;;;56.87;45.60;;;4.70;26.90;;;;;;4996339;28;20251;-69
2021/01/03 03:20:55;;;;;;;58.43;50.53;;;4.80;26.60;;;;;;4996522;28;20231;-70
2021/01/03 03:23:21;;;;;;;51.73;45.17;;;4.80;25.90;;;;;;4996271;28;20175;-70
2021/01/03 03:25:48;;;;;;;55.57;47.03;;;4.80;25.60;;;;;;4996096;28;20200;-69
2021/01/03 03:28:15;;;;;;;61.17;53.22;;;4.80;25.70;;;;;;4996186;28;20584;-70
2021/01/03 03:30:40;;;;;;;54.88;43.45;;;4.90;25.50;;;;;;4996169;28;20622;-70
2021/01/03 03:33:06;;;;;;;57.60;41.90;;;4.90;25.30;;;;;;4996188;28;20186;-70
2021/01/03 03:35:37;;;;;;;62.03;48.50;;;4.80;25.60;;;;;;4996113;28;20180;-70
2021/01/03 03:38:05;;;;;;;60.97;54.90;;;4.80;25.40;;;;;;4995933;28;20646;-70
2021/01/03 03:40:32;;;;;;;60.60;54.03;;;4.80;25.50;;;;;;4995931;28;20294;-70
2021/01/03 03:42:57;;;;;;;58.50;48.08;;;4.80;25.60;;;;;;4996440;28;20271;-70
2021/01/03 03:45:23;;;;;;;54.73;48.80;;;4.80;25.80;;;;;;4995826;28;20685;-69
2021/01/03 03:47:49;;;;;;;61.87;52.90;;;4.80;25.90;;;;;;4995613;28;20187;-70
2021/01/03 03:50:21;;;;;;;63.20;56.17;;;4.70;26.10;;;;;;4994517;28;20180;-70
2021/01/03 03:52:46;;;;;;;65.40;50.45;;;4.70;29.80;;;;;;4995959;28;20194;-70
2021/01/03 03:55:13;;;;;;;60.47;50.90;;;4.60;26.50;;;;;;4995845;28;20172;-70
2021/01/03 03:57:39;;;;;;;62.58;55.88;;;4.60;26.80;;;;;;4994177;28;20227;-70
2021/01/03 04:00:11;;;;;;;56.57;50.53;;;4.60;27.00;;;;;;4995607;28;20238;-70
2021/01/03 04:02:36;;;;;;;61.95;55.60;;;4.60;27.00;;;;;;4995741;28;20167;-70
2021/01/03 04:05:03;;;;;;;58.97;52.67;;;4.60;26.40;;;;;;4995791;28;20249;-69
2021/01/03 04:07:28;;;;;;;56.47;50.55;;;4.50;26.50;;;;;;4995225;28;20208;-69
2021/01/03 04:09:54;;;;;;;61.30;51.50;;;4.50;26.70;;;;;;4995367;28;20315;-69
2021/01/03 04:12:20;;;;;;;58.70;53.10;;;4.50;26.80;;;;;;4995361;28;20172;-69
2021/01/03 04:14:45;;;;;;;51.77;46.23;;;4.60;26.70;;;;;;4995342;28;20179;-69
2021/01/03 04:17:11;;;;;;;54.27;48.57;;;4.50;26.90;;;;;;4995089;28;20282;-69
2021/01/03 04:19:36;;;;;;;54.60;48.90;;;4.50;26.80;;;;;;4995148;28;20200;-69
2021/01/03 04:22:05;;;;;;;53.77;48.27;;;4.50;26.50;;;;;;4995362;28;20168;-69
2021/01/03 04:24:32;;;;;;;61.33;55.25;;;4.40;27.00;;;;;;4995262;28;20231;-69
2021/01/03 04:27:04;;;;;;;53.65;47.35;;;4.40;27.70;;;;;;4994822;28;20202;-69
2021/01/03 04:29:30;;;;;;;58.35;52.15;;;4.50;27.60;;;;;;4995015;28;20171;-70
2021/01/03 04:31:57;;;;;;;64.57;58.75;;;4.50;27.30;;;;;;4995054;28;20176;-69
2021/01/03 04:34:24;;;;;;;54.85;49.00;;;4.40;27.10;;;;;;4994947;28;20172;-69
2021/01/03 04:36:51;;;;;;;57.70;49.35;;;4.40;26.80;;;;;;4994315;28;20172;-70
2021/01/03 04:39:17;;;;;;;54.85;48.15;;;4.50;26.60;;;;;;4994772;28;20175;-69
2021/01/03 04:41:44;;;;;;;56.05;50.28;;;4.50;26.10;;;;;;4994968;28;20627;-69
2021/01/03 04:44:45;;;;;;;64.05;49.20;;;4.50;25.90;;;;;;4994985;28;20175;-70
2021/01/03 04:47:25;;;;;;;54.95;45.05;;;4.50;25.10;;;;;;4994085;28;20282;-69
2021/01/03 04:50:13;;;;;;;50.95;45.28;;;4.40;24.80;;;;;;4994946;28;20184;-69
2021/01/03 04:53:02;;;;;;;50.47;44.97;;;4.50;29.00;;;;;;4994904;28;20168;-69
2021/01/03 04:55:31;;;;;;;58.85;46.35;;;4.40;25.40;;;;;;4994601;28;20175;-69
2021/01/03 04:58:06;;;;;;;62.67;49.40;;;4.40;25.40;;;;;;4994470;28;20203;-69
2021/01/03 05:00:35;;;;;;;59.05;51.10;;;4.50;25.30;;;;;;4994884;28;20198;-69
2021/01/03 05:03:45;;;;;;;56.80;50.28;;;4.50;24.80;;;;;;4994681;28;20274;-69
2021/01/03 05:06:18;;;;;;;54.45;48.15;;;4.50;24.10;;;;;;4984184;28;20195;-70
2021/01/03 05:08:51;;;;;;;49.88;44.63;;;4.40;24.50;;;;;;4994361;28;20200;-69
2021/01/03 05:11:21;;;;;;;56.55;50.45;;;4.40;24.70;;;;;;4994645;28;20187;-70
2021/01/03 05:14:22;;;;;;;57.25;51.13;;;4.40;24.50;;;;;;4994443;28;20176;-69
2021/01/03 05:16:55;;;;;;;65.25;58.60;;;4.40;24.30;;;;;;4991032;28;20226;-69
2021/01/03 05:19:21;;;;;;;66.05;51.10;;;4.40;24.40;;;;;;4994199;28;20176;-69
2021/01/03 05:21:52;;;;;;;59.25;49.42;;;4.40;27.80;;;;;;4993108;28;20172;-69
2021/01/03 05:24:30;;;;;;;62.63;56.42;;;4.30;24.20;;;;;;4993135;28;20178;-69
2021/01/03 05:27:11;;;;;;;71.50;65.43;;;4.30;23.90;;;;;;4994003;28;20187;-69
2021/01/03 05:29:36;;;;;;;59.35;53.15;;;4.30;23.90;;;;;;4994199;28;20634;-69
2021/01/03 05:32:05;;;;;;;51.83;44.30;;;4.30;23.70;;;;;;4994489;28;20179;-69
2021/01/03 05:34:37;;;;;;;48.65;38.65;;;4.30;23.50;;;;;;4994369;28;20191;-69
2021/01/03 05:37:15;;;;;;;51.45;41.22;;;4.30;23.60;;;;;;4993793;28;20196;-69
2021/01/03 05:39:42;;;;;;;52.13;46.42;;;4.30;23.30;;;;;;4994231;28;20253;-70
2021/01/03 05:42:19;;;;;;;51.55;46.30;;;4.40;22.70;;;;;;4994226;28;20180;-70
2021/01/03 05:45:02;;;;;;;46.03;41.55;;;4.40;22.60;;;;;;4994233;28;20167;-69
2021/01/03 05:47:39;;;;;;;52.60;44.60;;;4.40;22.50;;;;;;4995412;28;20191;-69
2021/01/03 05:50:16;;;;;;;51.35;38.33;;;4.40;21.70;;;;;;4998276;28;20211;-69
2021/01/03 05:52:52;;;;;;;55.50;48.83;;;4.40;21.30;;;;;;4998222;28;20534;-69
2021/01/03 05:55:21;;;;;;;49.33;41.33;;;4.40;20.50;;;;;;4998076;28;20179;-70
2021/01/03 05:57:47;;;;;;;46.65;41.80;;;4.40;20.40;;;;;;4997727;28;20211;-70
2021/01/03 06:00:23;;;;;;;49.42;42.63;;;4.40;20.90;;;;;;4997750;28;20199;-69
2021/01/03 06:02:49;;;;;;;48.88;40.42;;;4.40;20.90;;;;;;4996588;28;20178;-69
2021/01/03 06:05:19;;;;;;;56.87;49.00;;;4.40;20.70;;;;;;4997847;28;20176;-69
2021/01/03 06:08:03;;;;;;;52.53;47.17;;;4.50;20.70;;;;;;4997365;28;20199;-69
2021/01/03 06:10:37;;;;;;;50.38;45.45;;;4.50;19.80;;;;;;4997715;28;20553;-69
2021/01/03 06:13:05;;;;;;;55.65;50.05;;;4.50;20.70;;;;;;4997800;28;20539;-70
2021/01/03 06:15:36;;;;;;;53.33;48.35;;;4.50;20.70;;;;;;4997608;28;20172;-70
2021/01/03 06:18:03;;;;;;;49.20;42.88;;;4.60;20.10;;;;;;4997619;28;20210;-69
2021/01/03 06:20:31;;;;;;;50.33;45.38;;;4.60;20.30;;;;;;4996282;28;20192;-70
2021/01/03 06:23:09;;;;;;;52.15;46.80;;;4.60;20.30;;;;;;4997593;28;20175;-69
2021/01/03 06:25:42;;;;;;;51.65;47.13;;;4.60;20.10;;;;;;4997192;28;20170;-69
2021/01/03 06:28:23;;;;;;;49.47;44.17;;;4.60;20.70;;;;;;4997429;28;20270;-70
2021/01/03 06:31:13;;;;;;;45.90;41.05;;;4.50;21.00;;;;;;4996166;28;20713;-69
2021/01/03 06:33:59;;;;;;;55.60;50.35;;;4.50;21.80;;;;;;4997217;28;20263;-69
2021/01/03 06:36:44;;;;;;;53.00;47.55;;;4.40;23.00;;;;;;4996669;28;20192;-69
2021/01/03 06:39:29;;;;;;;50.90;45.65;;;4.30;28.40;;;;;;4997268;28;20164;-69
2021/01/03 06:42:05;;;;;;;50.30;42.67;;;4.20;27.50;;;;;;4997272;28;20179;-69
2021/01/03 06:44:47;;;;;;;49.63;44.28;;;4.30;28.60;;;;;;4997460;28;20229;-69
2021/01/03 06:48:01;;;;;;;53.50;46.15;;;4.30;29.40;;;;;;4996834;28;20210;-69
2021/01/03 06:50:38;;;;;;;61.78;55.47;;;4.30;30.10;;;;;;4995179;28;20195;-69
2021/01/03 06:53:25;;;;;;;60.60;52.72;;;4.20;31.30;;;;;;4996853;28;20167;-69
2021/01/03 06:56:28;;;;;;;57.60;52.17;;;4.10;33.30;;;;;;4996723;28;20175;-69
2021/01/03 06:59:32;;;;;;;61.38;51.28;;;4.10;35.00;;;;;;4996134;28;20196;-69
2021/01/03 07:01:58;;;;;;;68.22;53.85;;;4.00;38.50;;;;;;4997006;28;20661;-69
2021/01/03 07:04:37;;;;;;;74.63;67.87;;;4.00;39.10;;;;;;4996852;28;20294;-69
2021/01/03 07:07:11;;;;;;;65.50;58.38;;;3.90;40.00;;;;;;4996340;28;20195;-69
2021/01/03 07:10:05;;;;;;;67.93;50.45;;;3.90;40.70;;;;;;4996902;28;20528;-69
2021/01/03 07:12:43;;;;;;;72.65;54.25;;;3.90;40.80;;;;;;4996671;28;20164;-69
2021/01/03 07:15:27;;;;;;;69.65;55.35;;;3.90;40.60;;;;;;4996661;28;20175;-69
2021/01/03 07:17:55;;;;;;;67.60;52.55;;;3.90;40.90;;;;;;4996381;28;20223;-69
2021/01/03 07:20:53;;;;;;;62.38;48.58;;;3.90;39.70;;;;;;4996363;28;20283;-69
2021/01/03 07:23:32;;;;;;;59.22;48.88;;;3.90;39.00;;;;;;4996589;28;20164;-69
2021/01/03 07:26:24;;;;;;;56.55;50.33;;;3.90;37.80;;;;;;4995162;28;20532;-69
2021/01/03 07:28:54;;;;;;;62.42;52.97;;;3.80;38.50;;;;;;4996169;28;20225;-69
2021/01/03 07:31:39;;;;;;;63.40;56.63;;;3.80;37.90;;;;;;4996444;28;20191;-69
2021/01/03 07:34:42;;;;;;;59.90;46.58;;;3.80;37.80;;;;;;4996256;28;20534;-70
2021/01/03 07:37:11;;;;;;;62.88;51.03;;;3.80;37.90;;;;;;4984088;28;20243;-69
2021/01/03 07:39:58;;;;;;;65.18;50.20;;;3.90;36.20;;;;;;4995925;28;20182;-69
2021/01/03 07:42:29;;;;;;;58.65;52.67;;;3.80;36.50;;;;;;4996162;28;20649;-69
2021/01/03 07:44:56;;;;;;;60.72;45.67;;;3.80;36.40;;;;;;4996156;28;20593;-69
2021/01/03 07:47:48;;;;;;;64.80;51.78;;;3.80;36.90;;;;;;4995860;28;20199;-69
2021/01/03 07:50:33;;;;;;;50.90;43.40;;;3.80;36.00;;;;;;4995828;28;20305;-69
2021/01/03 07:53:34;;;;;;;55.97;49.90;;;3.80;36.40;;;;;;4995761;28;20183;-69
2021/01/03 07:56:24;;;;;;;56.33;49.42;;;3.80;36.70;;;;;;4995583;28;20168;-69
2021/01/03 07:58:55;;;;;;;50.97;41.92;;;3.70;36.30;;;;;;4995505;28;20203;-69
2021/01/03 08:01:24;;;;;;;53.45;48.03;;;3.80;36.20;;;;;;4995581;28;20196;-69
2021/01/03 08:03:50;;;;;;;59.75;53.92;;;3.80;37.80;;;;;;4995744;28;20175;-69
2021/01/03 08:06:18;;;;;;;49.30;43.90;;;3.70;38.10;;;;;;4995595;28;20176;-69
2021/01/03 08:08:54;;;;;;;52.75;41.72;;;3.70;38.70;;;;;;4995279;28;20450;-69
2021/01/03 08:11:32;;;;;;;57.97;50.47;;;3.70;40.00;;;;;;4994763;28;20175;-69
2021/01/03 08:14:05;;;;;;;54.90;43.38;;;3.70;41.00;;;;;;4994182;28;20199;-69
2021/01/03 08:16:32;;;;;;;48.85;37.83;;;3.80;39.90;;;;;;4993978;28;20180;-69
2021/01/03 08:19:04;;;;;;;52.25;45.15;;;3.80;39.20;;;;;;4995176;28;20199;-69
2021/01/03 08:21:36;;;;;;;51.33;46.20;;;3.80;38.00;;;;;;4994224;28;20298;-69
2021/01/03 08:24:10;;;;;;;53.75;45.55;;;3.80;42.70;;;;;;4995367;28;20178;-69
2021/01/03 08:26:43;;;;;;;54.65;48.15;;;3.80;37.20;;;;;;4993826;28;20207;-69
2021/01/03 08:29:37;;;;;;;54.10;48.83;;;3.80;37.80;;;;;;4995273;28;20520;-70
2021/01/03 08:32:22;;;;;;;47.30;42.72;;;3.80;37.50;;;;;;4995228;28;20172;-73
2021/01/03 08:34:48;;;;;;;50.85;42.40;;;3.80;36.50;;;;;;4995480;28;20163;-69
2021/01/03 08:37:22;;;;;;;47.20;42.77;;;3.80;37.00;;;;;;4994679;28;20196;-69
2021/01/03 08:39:50;;;;;;;51.90;46.50;;;3.90;36.50;;;;;;4994712;28;20474;-70
2021/01/03 08:42:27;;;;;;;44.08;38.95;;;3.90;36.30;;;;;;5012960;28;20176;-70
2021/01/03 08:44:57;;;;;;;52.40;47.08;;;3.90;34.80;;;;;;5014863;28;20180;-69
2021/01/03 08:47:38;;;;;;;48.75;43.03;;;3.90;34.10;;;;;;5014305;28;20624;-70
2021/01/03 08:50:17;;;;;;;47.67;43.08;;;4.00;33.10;;;;;;5046564;28;20175;-70
2021/01/03 08:52:42;;;;;;;43.85;39.17;;;4.00;32.40;;;;;;5014618;28;20181;-69
2021/01/03 08:55:17;;;;;;;43.63;39.50;;;4.10;31.70;;;;;;5014584;28;20266;-70
2021/01/03 08:57:43;;;;;;;41.60;34.72;;;4.10;29.20;;;;;;5014176;28;20194;-69
2021/01/03 09:00:19;;;;;;;39.20;34.95;;;4.10;34.70;;;;;;5014367;28;20269;-69
2021/01/03 09:02:46;;;;;;;42.90;38.63;;;4.20;30.10;;;;;;5014640;28;20179;-69
2021/01/03 09:05:16;;;;;;;43.05;38.83;;;4.10;29.30;;;;;;5014624;28;20237;-70
2021/01/03 09:07:44;;;;;;;47.30;42.33;;;4.20;33.80;;;;;;5013790;28;20293;-70
2021/01/03 09:10:20;;;;;;;46.55;42.00;;;4.20;28.20;;;;;;5014383;28;20174;-69
2021/01/03 09:12:47;;;;;;;45.38;40.92;;;4.10;28.30;;;;;;5014387;28;20202;-70
2021/01/03 09:15:23;;;;;;;40.38;35.95;;;4.20;28.60;;;;;;5011890;28;20186;-70
2021/01/03 09:18:20;;;;;;;45.03;40.50;;;4.10;29.80;;;;;;5001291;28;20199;-70
2021/01/03 09:20:46;;;;;;;45.40;40.25;;;4.10;30.80;;;;;;5011377;28;20213;-69
2021/01/03 09:23:18;;;;;;;49.15;43.90;;;4.10;31.10;;;;;;5001360;28;20239;-70
2021/01/03 09:25:52;;;;;;;44.50;39.85;;;4.10;31.40;;;;;;4994426;28;20182;-70
2021/01/03 09:28:26;;;;;;;47.35;42.72;;;4.20;31.40;;;;;;4994562;28;20200;-70
2021/01/03 09:31:06;;;;;;;43.92;39.65;;;4.20;31.20;;;;;;4994432;28;20233;-70
2021/01/03 09:33:32;;;;;;;52.42;47.53;;;4.20;30.00;;;;;;4994518;28;20183;-70
2021/01/03 09:36:29;;;;;;;50.43;46.23;;;4.20;30.10;;;;;;4994153;28;20176;-70
2021/01/03 09:39:24;;;;;;;49.33;41.75;;;4.20;31.30;;;;;;4993485;28;20200;-70
2021/01/03 09:41:57;;;;;;;44.50;40.00;;;4.20;32.10;;;;;;4994005;28;20168;-70
2021/01/03 09:44:35;;;;;;;43.20;38.78;;;4.20;32.00;;;;;;4994561;28;20648;-70
2021/01/03 09:47:08;;;;;;;35.72;30.80;;;4.10;33.30;;;;;;5005972;28;20253;-69
2021/01/03 09:49:39;;;;;;;41.00;36.22;;;4.20;33.60;;;;;;5008493;28;20710;-70
2021/01/03 09:52:23;;;;;;;44.13;37.10;;;4.20;33.40;;;;;;5003565;28;20259;-70
2021/01/03 09:55:03;;;;;;;43.30;39.25;;;4.20;33.10;;;;;;5001621;28;20544;-70
2021/01/03 09:57:53;;;;;;;43.25;38.85;;;4.20;33.40;;;;;;5001559;28;20267;-70
2021/01/03 10:00:46;;;;;;;42.70;37.33;;;4.20;33.20;;;;;;4995038;28;20211;-70
2021/01/03 10:03:40;;;;;;;45.22;41.47;;;4.10;33.20;;;;;;5000846;28;20408;-66
2021/01/03 10:06:32;;;;;;;39.47;35.60;;;4.10;34.50;;;;;;5003173;28;20182;-65
2021/01/03 10:09:26;;;;;;;44.58;39.80;;;4.20;34.80;;;;;;5000745;28;20700;-64
2021/01/03 10:11:53;;;;;;;38.30;34.20;;;4.20;33.20;;;;;;4988909;28;20255;-64
2021/01/03 10:14:35;;;;;;;39.35;35.53;;;4.20;32.80;;;;;;4994374;28;20180;-64
2021/01/03 10:17:19;;;;;;;38.88;35.22;;;4.30;31.70;;;;;;4993572;28;20689;-65
2021/01/03 10:19:45;;;;;;;43.42;39.42;;;4.30;30.30;;;;;;4993118;28;20204;-64
2021/01/03 10:22:33;;;;;;;35.35;32.13;;;4.30;30.70;;;;;;4994271;28;20172;-64
2021/01/03 10:25:03;;;;;;;37.50;34.10;;;4.40;30.90;;;;;;4993883;28;20182;-64
2021/01/03 10:27:28;;;;;;;38.33;34.55;;;4.30;31.20;;;;;;4993683;28;20271;-64
2021/01/03 10:29:54;;;;;;;36.43;32.93;;;4.30;31.50;;;;;;4993947;28;20267;-64
2021/01/03 10:32:20;;;;;;;35.33;32.30;;;4.40;31.30;;;;;;4994051;28;20172;-64
2021/01/03 10:34:45;;;;;;;33.83;30.77;;;4.40;29.60;;;;;;4997102;28;20218;-64
2021/01/03 10:37:11;;;;;;;36.40;33.80;;;4.40;27.40;;;;;;4997058;28;20493;-64
2021/01/03 10:39:37;;;;;;;34.53;32.13;;;4.40;26.30;;;;;;4997132;28;20168;-64
2021/01/03 10:42:05;;;;;;;33.90;31.63;;;4.40;24.30;;;;;;4997283;28;20255;-64
2021/01/03 10:44:30;;;;;;;40.00;37.78;;;4.40;23.30;;;;;;4997339;28;20224;-64
2021/01/03 10:46:57;;;;;;;29.83;28.03;;;4.40;21.00;;;;;;4997283;28;20180;-64
2021/01/03 10:49:23;;;;;;;29.15;27.65;;;4.40;19.00;;;;;;4997583;28;20210;-64
2021/01/03 10:51:50;;;;;;;31.73;30.13;;;4.50;21.30;;;;;;4997644;28;20229;-64
2021/01/03 10:54:19;;;;;;;25.23;23.92;;;4.50;21.50;;;;;;4997039;28;20615;-64
2021/01/03 10:56:49;;;;;;;23.25;21.65;;;4.50;19.10;;;;;;4996855;28;20267;-64
2021/01/03 10:59:14;;;;;;;24.73;23.23;;;4.60;20.10;;;;;;4996772;28;20172;-64
2021/01/03 11:01:40;;;;;;;24.90;23.70;;;4.60;21.60;;;;;;4997134;28;20615;-64
2021/01/03 11:04:07;;;;;;;24.43;23.33;;;4.60;23.70;;;;;;4997452;28;20539;-64
2021/01/03 11:06:41;;;;;;;27.30;25.80;;;4.60;22.10;;;;;;4996887;28;20307;-64
2021/01/03 11:09:11;;;;;;;23.73;22.63;;;4.60;23.20;;;;;;4996819;28;20259;-64
2021/01/03 11:11:37;;;;;;;26.83;25.35;;;4.60;26.10;;;;;;5005163;28;20460;-65
2021/01/03 11:14:03;;;;;;;28.93;27.33;;;4.70;28.40;;;;;;5007634;28;20676;-65
2021/01/03 11:16:37;;;;;;;25.60;24.20;;;4.80;32.40;;;;;;4992686;28;20186;-65
2021/01/03 11:19:05;;;;;;;28.08;26.38;;;4.80;33.60;;;;;;4993823;28;20191;-65
2021/01/03 11:21:30;;;;;;;26.35;24.95;;;4.90;36.70;;;;;;4993631;28;20223;-65
2021/01/03 11:23:57;;;;;;;25.33;23.80;;;4.90;40.70;;;;;;4993904;28;20175;-64
2021/01/03 11:26:28;;;;;;;27.95;26.05;;;4.90;41.80;;;;;;4993187;28;20919;-65
2021/01/03 11:28:54;;;;;;;26.35;24.42;;;4.90;43.00;;;;;;5007841;28;20707;-64
2021/01/03 11:31:19;;;;;;;26.80;25.00;;;4.90;45.00;;;;;;5012937;28;20178;-64
2021/01/03 11:33:45;;;;;;;27.30;25.03;;;4.90;46.90;;;;;;5013120;28;20183;-64
2021/01/03 11:36:11;;;;;;;29.27;27.37;;;5.00;49.80;;;;;;5012005;28;20175;-64
2021/01/03 11:38:36;;;;;;;40.27;37.97;;;5.00;49.00;;;;;;5013126;28;20594;-64
2021/01/03 11:41:03;;;;;;;42.63;40.43;;;4.90;50.20;;;;;;5012590;28;20203;-64
2021/01/03 11:43:28;;;;;;;33.00;30.77;;;4.90;52.90;;;;;;5012659;28;20405;-66
2021/01/03 11:45:54;;;;;;;40.10;36.03;;;4.90;54.10;;;;;;5012724;28;20646;-66
2021/01/03 11:48:20;;;;;;;30.13;28.23;;;4.90;54.70;;;;;;5012817;28;20191;-64
2021/01/03 11:50:45;;;;;;;34.07;31.77;;;4.80;55.60;;;;;;5012908;28;20645;-65
2021/01/03 11:53:11;;;;;;;29.47;27.30;;;4.70;57.90;;;;;;5012850;28;20612;-66
2021/01/03 11:55:36;;;;;;;34.50;32.40;;;4.70;59.10;;;;;;5012089;28;20171;-63
2021/01/03 11:58:02;;;;;;;35.53;33.13;;;4.70;60.00;;;;;;5012827;28;20226;-65
2021/01/03 12:00:27;;;;;;;34.93;32.60;;;4.60;60.10;;;;;;5012839;28;20241;-65
2021/01/03 12:02:53;;;;;;;39.00;36.70;;;4.60;61.20;;;;;;5012560;28;20177;-63
2021/01/03 12:05:20;;;;;;;36.00;33.73;;;4.60;62.10;;;;;;5012827;28;20589;-64
2021/01/03 12:07:46;;;;;;;32.80;30.80;;;4.60;65.50;;;;;;5011611;28;20464;-65
2021/01/03 12:10:12;;;;;;;44.97;42.13;;;4.60;67.00;;;;;;5012467;28;20650;-65
2021/01/03 12:12:37;;;;;;;39.65;37.35;;;4.50;68.70;;;;;;5012516;28;20181;-66
2021/01/03 12:15:05;;;;;;;39.47;37.13;;;4.60;72.80;;;;;;5012323;28;20206;-64
2021/01/03 12:17:30;;;;;;;36.70;34.47;;;4.60;73.40;;;;;;5011751;28;20203;-65
2021/01/03 12:19:56;;;;;;;36.00;33.70;;;4.60;74.80;;;;;;5012355;28;20294;-64
2021/01/03 12:22:21;;;;;;;37.37;35.47;;;4.50;75.80;;;;;;5011973;28;20167;-64
2021/01/03 12:24:47;;;;;;;35.67;33.37;;;4.50;76.90;;;;;;5012225;28;20206;-65
2021/01/03 12:27:16;;;;;;;38.70;36.60;;;4.50;79.30;;;;;;5012112;28;20237;-64
2021/01/03 12:29:42;;;;;;;37.85;35.65;;;4.50;78.90;;;;;;5012159;28;20464;-65
2021/01/03 12:32:10;;;;;;;32.08;30.17;;;4.50;79.50;;;;;;5012109;28;20233;-65
2021/01/03 12:34:36;;;;;;;33.47;31.58;;;4.50;78.70;;;;;;5011075;28;20167;-65
2021/01/03 12:37:02;;;;;;;26.40;24.27;;;4.50;79.90;;;;;;5005303;28;20203;-65
2021/01/03 12:39:28;;;;;;;27.00;25.20;;;4.40;80.40;;;;;;5002255;28;20410;-64
2021/01/03 12:41:53;;;;;;;34.67;32.87;;;4.50;80.80;;;;;;5001602;28;20282;-65
2021/01/03 12:44:19;;;;;;;36.55;34.45;;;4.50;80.80;;;;;;4999643;28;20607;-65
2021/01/03 12:46:45;;;;;;;38.00;35.90;;;4.50;81.60;;;;;;5004198;28;20246;-63
2021/01/03 12:49:12;;;;;;;40.70;38.43;;;4.50;81.40;;;;;;5002274;28;20182;-65
2021/01/03 12:51:38;;;;;;;30.00;28.10;;;4.50;81.30;;;;;;5001785;28;20180;-65
2021/01/03 12:54:05;;;;;;;34.00;32.08;;;4.50;82.50;;;;;;4999531;28;20183;-65
2021/01/03 12:56:30;;;;;;;41.95;39.85;;;4.60;82.30;;;;;;4994137;28;20188;-65
2021/01/03 12:58:59;;;;;;;40.70;38.60;;;4.60;83.20;;;;;;4992314;28;20275;-65